Kankakee, Illinois
Current Conditions -  °F | °C
As of 12:55 PM on Tuesday 27 Jan 2015 (Local Time) from KIKK Reporting Station
Overcast Overcast  
Wind Chill: 23°   Ceiling: 3400
Heat Index: 29°   Visibility: 10mi
Dew Point: 19°   Wind: 6mph
Humidity: 66%   Direction: 30°NNE
Pressure: 30.17"   Gusts: NA
Location:  41.12°N, 87.86°W
Report Text: KIKK 271855Z AUTO 03005KT 10SM BKN034 OVC050 M01/M07 A3017 RMK AO2 T10151071
Loading
Personal Weather Stations






























Interactive Weather Map New forecast layout! Learn more

10-Day Weather Forecast

Advertisements
Track Severe Weather on mobile